createdAt,value
2023-04-02T00:00:26.349Z,98692.09
2023-04-02T00:01:40.713Z,98687.25
2023-04-02T00:02:54.454Z,98693.25
2023-04-02T00:04:11.460Z,98691.41
2023-04-02T00:05:19.471Z,98684.78
2023-04-02T00:06:33.265Z,98680.25
2023-04-02T00:07:38.284Z,98670.41
2023-04-02T00:08:41.093Z,98670.69
2023-04-02T00:09:43.231Z,98674.59
2023-04-02T00:10:51.013Z,98676.56
2023-04-02T00:11:54.884Z,98678.03
2023-04-02T00:13:23.844Z,98668.72
2023-04-02T00:14:30.867Z,98677.53
2023-04-02T00:15:34.127Z,98672.75
2023-04-02T00:16:36.426Z,98673.03
2023-04-02T00:17:38.275Z,98669.28
2023-04-02T00:18:45.676Z,98675.22
2023-04-02T00:20:07.029Z,98671.25
2023-04-02T00:21:24.424Z,98674.41
2023-04-02T00:22:34.443Z,98672.94
2023-04-02T00:23:40.148Z,98667.41
2023-04-02T00:24:42.335Z,98674.75
2023-04-02T00:25:45.672Z,98677.88
2023-04-02T00:26:52.195Z,98677.72
2023-04-02T00:27:55.924Z,98684.41
2023-04-02T00:29:01.180Z,98684.56
2023-04-02T00:30:04.348Z,98688.22
2023-04-02T00:31:06.290Z,98693.13
2023-04-02T00:32:17.536Z,98687.81
2023-04-02T00:33:23.034Z,98696.19
2023-04-02T00:34:35.078Z,98690.34
2023-04-02T00:35:39.434Z,98691.47
2023-04-02T00:36:44.153Z,98692.69
2023-04-02T00:37:46.222Z,98702.16
2023-04-02T00:38:49.059Z,98698.59
2023-04-02T00:39:55.841Z,98695.50
2023-04-02T00:41:02.414Z,98696.72
2023-04-02T00:42:07.532Z,98691.84
2023-04-02T00:43:16.528Z,98697.56
2023-04-02T00:44:22.162Z,98692.16
2023-04-02T00:45:35.788Z,98697.31
2023-04-02T00:46:49.762Z,98695.09
2023-04-02T00:47:52.782Z,98700.03
2023-04-02T00:49:08.046Z,98697.16
2023-04-02T00:50:13.711Z,98700.31
2023-04-02T00:51:24.875Z,98698.34
2023-04-02T00:52:31.086Z,98698.72
2023-04-02T00:53:35.549Z,98705.03
2023-04-02T00:54:52.172Z,98701.59
2023-04-02T00:55:56.112Z,98697.75
2023-04-02T00:56:59.082Z,98704.19
2023-04-02T00:58:04.323Z,98709.28
2023-04-02T00:59:37.691Z,98707.19
2023-04-02T01:00:40.488Z,98703.34
2023-04-02T01:01:42.738Z,98702.31
2023-04-02T01:03:16.817Z,98706.47
2023-04-02T01:04:36.459Z,98705.37
2023-04-02T01:05:38.881Z,98708.41
2023-04-02T01:06:43.966Z,98704.78
2023-04-02T01:08:16.173Z,98708.97
2023-04-02T01:09:23.945Z,98707.75
2023-04-02T01:10:47.114Z,98701.47
2023-04-02T01:11:54.704Z,98718.38
2023-04-02T01:13:42.087Z,98716.22
2023-04-02T01:15:14.967Z,98711.31
2023-04-02T01:16:33.183Z,98716.81
2023-04-02T01:18:07.125Z,98706.25
2023-04-02T01:19:26.073Z,98704.53
2023-04-02T01:21:06.180Z,98712.63
2023-04-02T01:22:30.856Z,98709.34
2023-04-02T01:23:39.640Z,98715.47
2023-04-02T01:24:44.177Z,98706.56
2023-04-02T01:26:00.650Z,98701.94
2023-04-02T01:27:04.091Z,98716.22
2023-04-02T01:28:14.841Z,98714.31
2023-04-02T01:29:21.065Z,98712.44
2023-04-02T01:30:23.653Z,98713.81
2023-04-02T01:31:27.434Z,98714.59
2023-04-02T01:32:31.299Z,98718.81
2023-04-02T01:33:35.311Z,98718.53
2023-04-02T01:34:38.056Z,98713.47
2023-04-02T01:35:46.454Z,98714.00
2023-04-02T01:37:22.259Z,98722.00
2023-04-02T01:38:33.996Z,98716.22
2023-04-02T01:39:54.547Z,98715.78
2023-04-02T01:41:07.407Z,98718.28
2023-04-02T01:42:33.376Z,98719.75
2023-04-02T01:44:12.370Z,98719.66
2023-04-02T01:45:18.037Z,98718.22
2023-04-02T01:46:27.846Z,98720.19
2023-04-02T01:47:29.978Z,98714.63
2023-04-02T01:48:32.205Z,98713.31
2023-04-02T01:49:34.263Z,98723.50
2023-04-02T01:50:39.344Z,98724.97
2023-04-02T01:51:47.530Z,98717.06
2023-04-02T01:52:54.028Z,98716.41
2023-04-02T01:53:59.206Z,98720.81
2023-04-02T01:55:01.227Z,98722.25
2023-04-02T01:56:04.904Z,98719.25
2023-04-02T01:57:08.441Z,98729.66
2023-04-02T01:58:13.815Z,98716.66
2023-04-02T01:59:22.368Z,98717.00
2023-04-02T02:00:27.860Z,98727.87
2023-04-02T02:01:49.268Z,98721.53
2023-04-02T02:02:52.233Z,98721.72
2023-04-02T02:03:54.876Z,98720.37
2023-04-02T02:04:56.965Z,98722.25
2023-04-02T02:05:59.900Z,98719.41
2023-04-02T02:07:04.249Z,98724.03
2023-04-02T02:08:24.707Z,98731.13
2023-04-02T02:09:38.092Z,98729.31
2023-04-02T02:10:39.969Z,98729.03
2023-04-02T02:11:42.112Z,98730.53
2023-04-02T02:12:46.364Z,98732.97
2023-04-02T02:13:55.925Z,98731.72
2023-04-02T02:14:57.785Z,98729.53
2023-04-02T02:16:01.550Z,98729.88
2023-04-02T02:17:13.458Z,98736.69
2023-04-02T02:18:20.178Z,98735.06
2023-04-02T02:19:34.106Z,98737.09
2023-04-02T02:20:36.300Z,98735.44
2023-04-02T02:21:46.148Z,98739.66
2023-04-02T02:22:50.715Z,98741.81
2023-04-02T02:23:53.599Z,98734.50
2023-04-02T02:24:57.558Z,98736.09
2023-04-02T02:25:59.436Z,98734.34
2023-04-02T02:27:19.909Z,98739.97
2023-04-02T02:28:26.169Z,98735.69
2023-04-02T02:29:29.623Z,98732.41
2023-04-02T02:30:45.259Z,98733.78
2023-04-02T02:31:52.552Z,98732.12
2023-04-02T02:33:18.060Z,98734.63
2023-04-02T02:34:26.468Z,98732.59
2023-04-02T02:36:00.705Z,98729.25
2023-04-02T02:37:10.530Z,98732.97
2023-04-02T02:38:34.782Z,98735.19
2023-04-02T02:39:44.177Z,98735.06
2023-04-02T02:40:50.499Z,98733.25
2023-04-02T02:42:11.615Z,98728.28
2023-04-02T02:43:16.892Z,98732.59
2023-04-02T02:44:24.017Z,98727.75
2023-04-02T02:45:31.284Z,98732.38
2023-04-02T02:46:35.996Z,98732.19
2023-04-02T02:47:44.072Z,98738.09
2023-04-02T02:48:47.233Z,98733.59
2023-04-02T02:49:54.152Z,98738.22
2023-04-02T02:50:59.037Z,98733.09
2023-04-02T02:52:03.800Z,98737.63
2023-04-02T02:53:16.383Z,98734.47
2023-04-02T02:54:19.884Z,98733.75
2023-04-02T02:55:27.550Z,98734.91
2023-04-02T02:56:32.427Z,98733.56
2023-04-02T02:57:44.118Z,98733.22
2023-04-02T02:58:46.758Z,98736.81
2023-04-02T02:59:51.761Z,98731.72
2023-04-02T03:00:54.613Z,98733.38
2023-04-02T03:01:58.133Z,98729.59
2023-04-02T03:03:04.597Z,98731.19
2023-04-02T03:04:07.386Z,98738.72
2023-04-02T03:05:15.982Z,98735.66
2023-04-02T03:06:20.735Z,98736.53
2023-04-02T03:07:27.308Z,98733.34
2023-04-02T03:08:41.594Z,98733.25
2023-04-02T03:10:13.204Z,98733.63
2023-04-02T03:11:47.418Z,98733.03
2023-04-02T03:13:19.897Z,98733.88
2023-04-02T03:14:42.682Z,98730.69
2023-04-02T03:15:50.697Z,98730.81
2023-04-02T03:17:00.915Z,98737.84
2023-04-02T03:18:20.904Z,98731.22
2023-04-02T03:19:42.098Z,98743.91
2023-04-02T03:20:49.015Z,98735.66
2023-04-02T03:21:54.787Z,98732.03
2023-04-02T03:23:26.483Z,98730.75
2023-04-02T03:24:44.301Z,98733.50
2023-04-02T03:25:52.160Z,98735.94
2023-04-02T03:27:16.638Z,98735.34
2023-04-02T03:28:28.907Z,98731.81
2023-04-02T03:29:33.103Z,98730.78
2023-04-02T03:30:52.967Z,98743.25
2023-04-02T03:32:06.102Z,98741.44
2023-04-02T03:33:21.526Z,98735.69
2023-04-02T03:34:34.532Z,98738.25
2023-04-02T03:36:03.029Z,98740.00
2023-04-02T03:37:25.777Z,98744.56
2023-04-02T03:38:32.025Z,98743.06
2023-04-02T03:39:44.808Z,98741.69
2023-04-02T03:40:55.814Z,98745.44
2023-04-02T03:42:14.891Z,98745.03
2023-04-02T03:43:23.896Z,98742.72
2023-04-02T03:44:48.152Z,98746.06
2023-04-02T03:45:57.081Z,98743.47
2023-04-02T03:47:10.758Z,98746.78
2023-04-02T03:48:34.722Z,98745.63
2023-04-02T03:50:01.560Z,98746.59
2023-04-02T03:51:12.504Z,98743.03
2023-04-02T03:52:27.130Z,98745.63
2023-04-02T03:53:32.164Z,98747.00
2023-04-02T03:54:34.460Z,98745.19
2023-04-02T03:55:38.750Z,98748.53
2023-04-02T03:56:43.175Z,98753.00
2023-04-02T03:57:54.603Z,98752.69
2023-04-02T03:59:25.334Z,98751.47
2023-04-02T04:00:51.594Z,98743.41
2023-04-02T04:02:15.806Z,98753.78
2023-04-02T04:03:41.536Z,98752.34
2023-04-02T04:04:46.920Z,98755.09
2023-04-02T04:05:50.662Z,98750.97
2023-04-02T04:06:53.739Z,98759.37
2023-04-02T04:08:01.510Z,98762.47
2023-04-02T04:09:27.234Z,98765.44
2023-04-02T04:10:30.936Z,98761.38
2023-04-02T04:11:36.116Z,98765.25
2023-04-02T04:12:46.353Z,98764.72
2023-04-02T04:14:01.026Z,98768.34
2023-04-02T04:15:17.504Z,98768.19
2023-04-02T04:16:35.988Z,98761.16
2023-04-02T04:18:19.217Z,98773.13
2023-04-02T04:19:32.639Z,98773.56
2023-04-02T04:21:07.130Z,98775.44
2023-04-02T04:22:20.316Z,98772.78
2023-04-02T04:23:30.013Z,98777.03
2023-04-02T04:24:39.291Z,98779.13
2023-04-02T04:25:41.549Z,98775.81
2023-04-02T04:27:09.552Z,98776.16
2023-04-02T04:28:25.400Z,98769.81
2023-04-02T04:29:38.146Z,98772.91
2023-04-02T04:31:04.048Z,98775.19
2023-04-02T04:32:32.512Z,98776.06
2023-04-02T04:33:41.872Z,98765.87
2023-04-02T04:34:53.588Z,98770.53
2023-04-02T04:35:59.326Z,98778.78
2023-04-02T04:37:07.884Z,98774.44
2023-04-02T04:38:40.945Z,98773.19
2023-04-02T04:39:49.260Z,98782.81
2023-04-02T04:40:56.627Z,98781.69
2023-04-02T04:42:03.162Z,98784.84
2023-04-02T04:43:13.949Z,98783.47
2023-04-02T04:44:23.452Z,98781.87
2023-04-02T04:45:39.566Z,98791.78
2023-04-02T04:46:47.544Z,98784.62
2023-04-02T04:47:57.844Z,98785.41
2023-04-02T04:49:27.434Z,98785.25
2023-04-02T04:50:46.446Z,98789.75
2023-04-02T04:51:56.340Z,98789.47
2023-04-02T04:53:06.801Z,98795.66
2023-04-02T04:54:16.127Z,98793.94
2023-04-02T04:55:27.333Z,98802.59
2023-04-02T04:56:32.393Z,98795.88
2023-04-02T04:57:38.064Z,98798.28
2023-04-02T04:58:44.293Z,98790.97
2023-04-02T04:59:59.149Z,98794.53
2023-04-02T05:01:24.915Z,98794.88
2023-04-02T05:02:32.896Z,98800.97
2023-04-02T05:03:59.719Z,98794.78
2023-04-02T05:05:03.606Z,98787.56
2023-04-02T05:06:39.161Z,98798.06
2023-04-02T05:07:50.892Z,98796.59
2023-04-02T05:08:57.347Z,98804.03
2023-04-02T05:10:33.780Z,98796.53
2023-04-02T05:11:45.740Z,98789.00
2023-04-02T05:12:57.153Z,98796.94
2023-04-02T05:14:07.259Z,98794.72
2023-04-02T05:15:33.970Z,98792.50
2023-04-02T05:16:51.257Z,98791.84
2023-04-02T05:18:17.649Z,98796.03
2023-04-02T05:19:43.207Z,98802.19
2023-04-02T05:21:01.448Z,98800.56
2023-04-02T05:22:24.266Z,98794.22
2023-04-02T05:23:29.468Z,98795.47
2023-04-02T05:25:10.421Z,98795.56
2023-04-02T05:26:31.356Z,98799.47
2023-04-02T05:27:43.186Z,98806.28
2023-04-02T05:28:58.523Z,98803.47
2023-04-02T05:30:10.292Z,98804.03
2023-04-02T05:31:20.145Z,98803.44
2023-04-02T05:32:29.042Z,98803.34
2023-04-02T05:33:34.776Z,98810.91
2023-04-02T05:34:39.783Z,98815.44
2023-04-02T05:35:46.365Z,98817.56
2023-04-02T05:36:48.883Z,98822.09
2023-04-02T05:37:51.331Z,98810.59
2023-04-02T05:38:56.425Z,98821.72
2023-04-02T05:40:06.734Z,98821.53
2023-04-02T05:41:31.511Z,98821.53
2023-04-02T05:42:37.764Z,98815.12
2023-04-02T05:43:47.192Z,98824.22
2023-04-02T05:45:29.237Z,98822.44
2023-04-02T05:46:36.976Z,98821.22
2023-04-02T05:47:45.971Z,98822.56
2023-04-02T05:48:56.795Z,98820.37
2023-04-02T05:50:08.575Z,98818.78
2023-04-02T05:51:19.122Z,98825.78
2023-04-02T05:52:29.490Z,98826.22
2023-04-02T05:53:36.217Z,98828.97
2023-04-02T05:54:49.331Z,98828.22
2023-04-02T05:55:58.380Z,98825.97
2023-04-02T05:57:04.824Z,98828.84
2023-04-02T05:58:35.316Z,98825.91
2023-04-02T05:59:45.335Z,98830.13
2023-04-02T06:00:52.051Z,98824.28
2023-04-02T06:02:16.955Z,98833.28
2023-04-02T06:03:48.912Z,98828.63
2023-04-02T06:05:19.142Z,98834.87
2023-04-02T06:06:39.451Z,98831.19
2023-04-02T06:07:46.882Z,98834.91
2023-04-02T06:08:58.433Z,98842.00
2023-04-02T06:10:00.684Z,98839.22
2023-04-02T06:11:17.398Z,98848.13
2023-04-02T06:12:42.063Z,98838.12
2023-04-02T06:13:45.470Z,98849.22
2023-04-02T06:14:48.400Z,98844.53
2023-04-02T06:15:51.038Z,98845.13
2023-04-02T06:16:53.338Z,98843.31
2023-04-02T06:17:58.840Z,98848.38
2023-04-02T06:19:02.221Z,98847.91
2023-04-02T06:20:06.847Z,98847.69
2023-04-02T06:21:12.139Z,98842.00
2023-04-02T06:22:38.237Z,98846.31
2023-04-02T06:23:53.801Z,98850.81
2023-04-02T06:25:05.839Z,98842.69
2023-04-02T06:26:33.295Z,98852.25
2023-04-02T06:27:37.224Z,98849.87
2023-04-02T06:28:48.349Z,98850.13
2023-04-02T06:29:55.656Z,98846.12
2023-04-02T06:31:04.881Z,98852.56
2023-04-02T06:32:11.527Z,98851.13
2023-04-02T06:33:14.042Z,98854.84
2023-04-02T06:34:24.410Z,98847.88
2023-04-02T06:35:27.496Z,98851.88
2023-04-02T06:36:30.052Z,98845.41
2023-04-02T06:37:38.256Z,98847.34
2023-04-02T06:38:41.633Z,98846.03
2023-04-02T06:39:46.031Z,98843.37
2023-04-02T06:41:02.674Z,98852.06
2023-04-02T06:42:13.493Z,98845.56
2023-04-02T06:43:19.328Z,98849.22
2023-04-02T06:44:33.196Z,98855.28
2023-04-02T06:45:42.167Z,98849.78
2023-04-02T06:47:17.452Z,98852.94
2023-04-02T06:48:24.438Z,98854.47
2023-04-02T06:49:36.380Z,98852.38
2023-04-02T06:51:05.503Z,98853.38
2023-04-02T06:52:18.367Z,98853.91
2023-04-02T06:53:33.002Z,98848.06
2023-04-02T06:54:34.930Z,98854.28
2023-04-02T06:55:52.363Z,98852.28
2023-04-02T06:56:56.435Z,98852.81
2023-04-02T06:57:59.195Z,98854.91
2023-04-02T06:59:04.742Z,98855.41
2023-04-02T07:00:25.121Z,98850.87
2023-04-02T07:01:31.212Z,98853.84
2023-04-02T07:02:39.773Z,98854.41
2023-04-02T07:03:43.000Z,98848.13
2023-04-02T07:04:46.119Z,98851.03
2023-04-02T07:05:49.380Z,98851.75
2023-04-02T07:06:51.415Z,98851.28
2023-04-02T07:07:54.475Z,98852.00
2023-04-02T07:08:56.367Z,98854.25
2023-04-02T07:09:59.073Z,98855.78
2023-04-02T07:11:01.005Z,98857.37
2023-04-02T07:12:11.281Z,98850.50
2023-04-02T07:13:16.652Z,98856.31
2023-04-02T07:14:18.876Z,98854.91
2023-04-02T07:15:23.616Z,98852.59
2023-04-02T07:16:27.995Z,98856.38
2023-04-02T07:17:30.658Z,98857.59
2023-04-02T07:18:34.211Z,98858.50
2023-04-02T07:19:36.609Z,98857.63
2023-04-02T07:20:38.954Z,98858.75
2023-04-02T07:21:41.452Z,98865.91
2023-04-02T07:22:43.524Z,98859.19
2023-04-02T07:23:45.435Z,98865.44
2023-04-02T07:24:47.401Z,98861.72
2023-04-02T07:25:50.784Z,98858.75
2023-04-02T07:26:52.655Z,98870.75
2023-04-02T07:27:55.534Z,98861.22
2023-04-02T07:28:57.439Z,98870.94
2023-04-02T07:29:59.275Z,98866.44
2023-04-02T07:31:01.850Z,98863.44
2023-04-02T07:32:03.776Z,98865.22
2023-04-02T07:33:05.820Z,98868.25
2023-04-02T07:34:08.662Z,98874.22
2023-04-02T07:35:11.102Z,98878.47
2023-04-02T07:36:15.778Z,98877.19
2023-04-02T07:37:17.729Z,98869.91
2023-04-02T07:38:19.762Z,98878.25
2023-04-02T07:39:21.650Z,98876.75
2023-04-02T07:40:24.360Z,98871.06
2023-04-02T07:41:27.609Z,98878.88
2023-04-02T07:42:29.595Z,98879.22
2023-04-02T07:43:32.208Z,98879.84
2023-04-02T07:44:34.075Z,98887.41
2023-04-02T07:45:36.148Z,98884.59
2023-04-02T07:46:38.578Z,98889.97
2023-04-02T07:47:40.746Z,98888.91
2023-04-02T07:48:44.161Z,98887.97
2023-04-02T07:49:46.042Z,98888.09
2023-04-02T07:50:48.049Z,98895.97
2023-04-02T07:51:51.975Z,98891.34
2023-04-02T07:52:53.997Z,98891.22
2023-04-02T07:53:56.201Z,98897.44
2023-04-02T07:54:58.408Z,98898.69
2023-04-02T07:56:02.991Z,98894.81
2023-04-02T07:57:05.545Z,98896.87
2023-04-02T07:58:09.903Z,98891.50
2023-04-02T07:59:11.955Z,98896.47
2023-04-02T08:00:15.315Z,98895.13
2023-04-02T08:01:27.343Z,98899.75
2023-04-02T08:02:29.309Z,98895.13
2023-04-02T08:03:31.464Z,98898.94
2023-04-02T08:04:33.455Z,98903.81
2023-04-02T08:05:35.664Z,98895.87
2023-04-02T08:06:37.958Z,98893.09
2023-04-02T08:07:40.350Z,98902.47
2023-04-02T08:08:42.716Z,98896.97
2023-04-02T08:09:44.772Z,98904.22
2023-04-02T08:10:46.985Z,98900.28
2023-04-02T08:11:49.194Z,98899.66
2023-04-02T08:12:51.169Z,98896.31
2023-04-02T08:13:53.093Z,98908.78
2023-04-02T08:14:55.271Z,98905.66
2023-04-02T08:15:59.550Z,98909.69
2023-04-02T08:17:01.781Z,98900.34
2023-04-02T08:18:03.856Z,98917.13
2023-04-02T08:19:05.898Z,98903.06
2023-04-02T08:20:10.570Z,98917.06
2023-04-02T08:21:16.363Z,98912.16
2023-04-02T08:22:19.338Z,98921.63
2023-04-02T08:23:21.812Z,98919.34
2023-04-02T08:24:24.008Z,98916.09
2023-04-02T08:25:26.094Z,98917.63
2023-04-02T08:26:28.012Z,98915.16
2023-04-02T08:27:30.215Z,98916.25
2023-04-02T08:28:32.365Z,98920.56
2023-04-02T08:29:34.417Z,98915.69
2023-04-02T08:30:36.557Z,98924.31
2023-04-02T08:31:38.468Z,98923.63
2023-04-02T08:32:41.513Z,98924.91
2023-04-02T08:33:43.499Z,98930.25
2023-04-02T08:34:45.958Z,98924.44
2023-04-02T08:35:49.516Z,98928.22
2023-04-02T08:36:51.835Z,98930.03
2023-04-02T08:37:53.950Z,98929.88
2023-04-02T08:38:56.230Z,98934.78
2023-04-02T08:39:58.045Z,98926.59
2023-04-02T08:41:02.788Z,98934.78
2023-04-02T08:42:23.406Z,98936.69
2023-04-02T08:43:37.599Z,98935.06
2023-04-02T08:44:43.359Z,98928.72
2023-04-02T08:46:03.292Z,98931.97
2023-04-02T08:47:09.780Z,98931.16
2023-04-02T08:48:15.493Z,98923.12
2023-04-02T08:49:25.023Z,98930.12
2023-04-02T08:50:40.811Z,98926.69
2023-04-02T08:51:43.299Z,98924.47
2023-04-02T08:52:45.505Z,98931.81
2023-04-02T08:53:47.701Z,98930.53
2023-04-02T08:54:50.734Z,98929.13
2023-04-02T08:56:17.669Z,98930.25
2023-04-02T08:57:31.665Z,98935.56
2023-04-02T08:58:42.387Z,98934.37
2023-04-02T08:59:45.355Z,98934.66
2023-04-02T09:00:51.307Z,98935.47
2023-04-02T09:02:09.807Z,98943.41
2023-04-02T09:03:17.370Z,98930.31
2023-04-02T09:04:23.335Z,98940.31
2023-04-02T09:05:31.896Z,98940.19
2023-04-02T09:06:34.829Z,98937.03
2023-04-02T09:07:36.741Z,98941.41
2023-04-02T09:08:39.871Z,98940.63
2023-04-02T09:09:42.186Z,98929.97
2023-04-02T09:10:53.371Z,98937.16
2023-04-02T09:12:04.588Z,98938.53
2023-04-02T09:13:20.604Z,98937.25
2023-04-02T09:14:45.300Z,98941.66
2023-04-02T09:15:47.930Z,98939.41
2023-04-02T09:16:53.365Z,98938.53
2023-04-02T09:18:06.428Z,98947.97
2023-04-02T09:19:26.337Z,98940.31
2023-04-02T09:20:29.347Z,98945.19
2023-04-02T09:21:34.939Z,98949.31
2023-04-02T09:22:36.935Z,98946.03
2023-04-02T09:23:39.080Z,98951.22
2023-04-02T09:24:41.095Z,98946.69
2023-04-02T09:26:02.905Z,98954.84
2023-04-02T09:27:19.353Z,98947.97
2023-04-02T09:28:23.557Z,98946.88
2023-04-02T09:29:45.413Z,98949.66
2023-04-02T09:31:09.289Z,98950.50
2023-04-02T09:32:32.114Z,98946.78
2023-04-02T09:33:42.678Z,98943.50
2023-04-02T09:34:45.676Z,98944.75
2023-04-02T09:35:47.631Z,98948.50
2023-04-02T09:36:49.613Z,98941.31
2023-04-02T09:38:11.822Z,98943.44
2023-04-02T09:39:17.717Z,98955.19
2023-04-02T09:40:26.283Z,98949.84
2023-04-02T09:41:30.099Z,98944.97
2023-04-02T09:42:35.120Z,98946.12
2023-04-02T09:43:38.893Z,98947.13
2023-04-02T09:44:40.932Z,98948.97
2023-04-02T09:45:45.332Z,98951.84
2023-04-02T09:46:54.150Z,98951.97
2023-04-02T09:47:57.882Z,98949.84
2023-04-02T09:49:01.481Z,98954.88
2023-04-02T09:50:21.596Z,98954.13
2023-04-02T09:51:31.861Z,98957.72
2023-04-02T09:52:33.788Z,98958.69
2023-04-02T09:53:37.020Z,98958.06
2023-04-02T09:54:41.590Z,98959.47
2023-04-02T09:55:43.633Z,98958.56
2023-04-02T09:57:04.569Z,98951.47
2023-04-02T09:58:16.057Z,98957.97
2023-04-02T09:59:21.970Z,98958.38
2023-04-02T10:00:32.196Z,98957.63
2023-04-02T10:01:35.364Z,98964.75
2023-04-02T10:02:37.668Z,98955.53
2023-04-02T10:03:43.436Z,98955.38
2023-04-02T10:04:48.548Z,98961.69
2023-04-02T10:06:05.585Z,98958.88
2023-04-02T10:07:07.782Z,98959.34
2023-04-02T10:08:28.168Z,98958.94
2023-04-02T10:09:32.716Z,98964.06
2023-04-02T10:10:44.820Z,98963.50
2023-04-02T10:11:47.228Z,98965.84
2023-04-02T10:13:02.385Z,98968.09
2023-04-02T10:14:09.686Z,98966.94
2023-04-02T10:15:21.311Z,98965.41
2023-04-02T10:16:47.430Z,98959.34
2023-04-02T10:18:01.745Z,98962.88
2023-04-02T10:19:14.858Z,98962.06
2023-04-02T10:20:21.248Z,98961.28
2023-04-02T10:21:32.701Z,98969.44
2023-04-02T10:22:34.572Z,98958.22
2023-04-02T10:23:36.746Z,98956.66
2023-04-02T10:24:39.314Z,98958.84
2023-04-02T10:25:49.755Z,98959.81
2023-04-02T10:27:22.652Z,98955.84
2023-04-02T10:28:43.850Z,98959.91
2023-04-02T10:29:48.706Z,98957.69
2023-04-02T10:31:00.697Z,98955.50
2023-04-02T10:32:15.910Z,98950.56
2023-04-02T10:33:17.718Z,98958.53
2023-04-02T10:34:27.995Z,98961.50
2023-04-02T10:35:45.366Z,98948.25
2023-04-02T10:36:57.814Z,98949.69
2023-04-02T10:38:24.571Z,98953.78
2023-04-02T10:39:40.555Z,98954.28
2023-04-02T10:41:31.267Z,98955.13
2023-04-02T10:42:51.115Z,98952.22
2023-04-02T10:44:19.706Z,98955.22
2023-04-02T10:45:54.644Z,98948.13
2023-04-02T10:47:15.410Z,98948.72
2023-04-02T10:48:28.474Z,98938.62
2023-04-02T10:49:50.539Z,98948.50
2023-04-02T10:51:06.894Z,98947.81
2023-04-02T10:52:29.008Z,98951.28
2023-04-02T10:53:57.097Z,98947.41
2023-04-02T10:55:04.563Z,98949.28
2023-04-02T10:56:12.403Z,98944.38
2023-04-02T10:57:34.161Z,98944.06
2023-04-02T10:58:47.777Z,98945.34
2023-04-02T10:59:56.045Z,98945.22
2023-04-02T11:01:26.976Z,98947.81
2023-04-02T11:02:37.945Z,98948.78
2023-04-02T11:03:47.707Z,98941.81
2023-04-02T11:04:52.308Z,98943.78
2023-04-02T11:05:58.245Z,98944.59
2023-04-02T11:07:13.909Z,98947.69
2023-04-02T11:08:27.178Z,98953.41
2023-04-02T11:09:33.762Z,98949.00
2023-04-02T11:10:40.419Z,98948.59
2023-04-02T11:11:46.305Z,98948.66
2023-04-02T11:12:55.663Z,98938.09
2023-04-02T11:14:06.945Z,98951.84
2023-04-02T11:15:19.798Z,98947.31
2023-04-02T11:16:22.464Z,98940.06
2023-04-02T11:17:29.439Z,98941.94
2023-04-02T11:18:37.490Z,98946.97
2023-04-02T11:19:39.708Z,98938.50
2023-04-02T11:20:47.791Z,98936.34
2023-04-02T11:22:17.548Z,98942.63
2023-04-02T11:23:21.011Z,98943.19
2023-04-02T11:24:34.526Z,98938.28
2023-04-02T11:25:37.269Z,98935.53
2023-04-02T11:26:47.424Z,98934.53
2023-04-02T11:27:49.387Z,98931.84
2023-04-02T11:29:03.066Z,98937.41
2023-04-02T11:30:26.337Z,98928.31
2023-04-02T11:31:28.749Z,98933.25
2023-04-02T11:32:36.542Z,98931.28
2023-04-02T11:33:46.156Z,98925.22
2023-04-02T11:35:06.540Z,98932.63
2023-04-02T11:36:46.884Z,98934.84
2023-04-02T11:37:49.067Z,98940.28
2023-04-02T11:38:52.946Z,98932.41
2023-04-02T11:39:59.640Z,98931.06
2023-04-02T11:41:01.525Z,98929.16
2023-04-02T11:42:24.961Z,98924.50
2023-04-02T11:43:33.279Z,98930.16
2023-04-02T11:44:35.525Z,98929.81
2023-04-02T11:45:51.883Z,98927.50
2023-04-02T11:47:16.638Z,98937.22
2023-04-02T11:48:21.863Z,98933.75
2023-04-02T11:49:36.299Z,98938.97
2023-04-02T11:50:38.484Z,98935.22
2023-04-02T11:51:40.785Z,98937.62
2023-04-02T11:52:45.815Z,98937.06
2023-04-02T11:53:48.615Z,98936.00
2023-04-02T11:55:05.209Z,98928.91
2023-04-02T11:56:21.899Z,98934.63
2023-04-02T11:57:50.474Z,98935.22
2023-04-02T11:59:01.338Z,98939.81
2023-04-02T12:00:36.339Z,98928.09
2023-04-02T12:02:06.797Z,98931.63
2023-04-02T12:03:30.871Z,98919.81
2023-04-02T12:04:50.730Z,98929.19
2023-04-02T12:06:02.282Z,98923.69
2023-04-02T12:07:27.163Z,98923.56
2023-04-02T12:08:57.964Z,98925.41
2023-04-02T12:10:03.515Z,98923.25
2023-04-02T12:11:06.185Z,98924.63
2023-04-02T12:12:34.282Z,98921.03
2023-04-02T12:13:39.342Z,98912.28
2023-04-02T12:14:47.461Z,98922.72
2023-04-02T12:15:52.482Z,98920.59
2023-04-02T12:16:54.769Z,98921.53
2023-04-02T12:18:14.460Z,98915.75
2023-04-02T12:19:17.265Z,98918.66
2023-04-02T12:20:29.871Z,98914.62
2023-04-02T12:21:31.938Z,98912.84
2023-04-02T12:22:35.989Z,98907.53
2023-04-02T12:23:39.133Z,98915.78
2023-04-02T12:24:41.517Z,98899.94
2023-04-02T12:25:52.082Z,98908.75
2023-04-02T12:27:15.037Z,98904.88
2023-04-02T12:28:20.722Z,98908.31
2023-04-02T12:29:27.736Z,98908.78
2023-04-02T12:30:29.643Z,98897.16
2023-04-02T12:31:33.612Z,98899.34
2023-04-02T12:32:36.015Z,98911.19
2023-04-02T12:33:41.664Z,98900.44
2023-04-02T12:34:46.466Z,98901.38
2023-04-02T12:35:53.609Z,98897.44
2023-04-02T12:37:04.417Z,98900.72
2023-04-02T12:38:16.112Z,98901.25
2023-04-02T12:39:18.356Z,98899.06
2023-04-02T12:40:20.530Z,98898.59
2023-04-02T12:41:24.415Z,98902.03
2023-04-02T12:42:34.490Z,98902.25
2023-04-02T12:43:38.010Z,98900.97
2023-04-02T12:44:48.977Z,98896.63
2023-04-02T12:45:54.127Z,98894.22
2023-04-02T12:46:57.249Z,98898.16
2023-04-02T12:48:02.196Z,98893.63
2023-04-02T12:49:16.156Z,98895.22
2023-04-02T12:50:18.658Z,98895.31
2023-04-02T12:51:21.324Z,98902.75
2023-04-02T12:52:28.747Z,98895.84
2023-04-02T12:53:41.313Z,98894.53
2023-04-02T12:54:51.187Z,98891.16
2023-04-02T12:55:54.385Z,98896.06
2023-04-02T12:57:20.686Z,98892.78
2023-04-02T12:58:35.758Z,98899.28
2023-04-02T12:59:39.153Z,98899.34
2023-04-02T13:00:41.308Z,98898.34
2023-04-02T13:01:56.771Z,98907.25
2023-04-02T13:03:01.137Z,98901.72
2023-04-02T13:04:04.851Z,98897.91
2023-04-02T13:05:09.027Z,98904.00
2023-04-02T13:06:22.492Z,98899.66
2023-04-02T13:07:26.669Z,98905.66
2023-04-02T13:08:41.799Z,98904.63
2023-04-02T13:09:48.228Z,98892.16
2023-04-02T13:10:57.778Z,98896.34
2023-04-02T13:12:00.152Z,98895.06
2023-04-02T13:13:03.744Z,98891.62
2023-04-02T13:14:09.607Z,98890.31
2023-04-02T13:15:25.119Z,98891.13
2023-04-02T13:16:33.960Z,98900.81
2023-04-02T13:17:39.438Z,98897.19
2023-04-02T13:18:43.321Z,98897.72
2023-04-02T13:19:45.768Z,98896.69
2023-04-02T13:21:21.176Z,98896.28
2023-04-02T13:22:32.222Z,98894.53
2023-04-02T13:23:37.423Z,98904.06
2023-04-02T13:24:41.419Z,98903.31
2023-04-02T13:25:43.972Z,98905.44
2023-04-02T13:26:47.995Z,98904.50
2023-04-02T13:27:49.995Z,98909.97
2023-04-02T13:28:56.456Z,98899.69
2023-04-02T13:30:08.157Z,98900.66
2023-04-02T13:31:17.092Z,98907.47
2023-04-02T13:32:19.982Z,98908.47
2023-04-02T13:33:22.031Z,98908.38
2023-04-02T13:34:24.303Z,98901.84
2023-04-02T13:35:27.209Z,98905.22
2023-04-02T13:36:29.662Z,98904.78
2023-04-02T13:37:31.698Z,98910.97
2023-04-02T13:38:33.678Z,98905.13
2023-04-02T13:39:35.608Z,98903.50
2023-04-02T13:40:38.218Z,98907.44
2023-04-02T13:41:46.444Z,98910.41
2023-04-02T13:42:49.897Z,98907.53